createdAt,value
2023-01-31T00:04:06.207Z,100316.34
2023-01-31T00:08:09.227Z,100296.50
2023-01-31T00:12:15.368Z,100292.94
2023-01-31T00:16:22.462Z,100294.88
2023-01-31T00:20:27.934Z,100289.34
2023-01-31T00:24:32.376Z,100293.97
2023-01-31T00:28:35.985Z,100281.72
2023-01-31T00:32:39.657Z,100285.94
2023-01-31T00:36:45.651Z,100280.25
2023-01-31T00:40:55.051Z,100287.44
2023-01-31T00:44:59.821Z,100276.59
2023-01-31T00:49:03.661Z,100270.53
2023-01-31T00:53:08.551Z,100259.97
2023-01-31T00:57:12.093Z,100265.75
2023-01-31T01:01:16.918Z,100267.41
2023-01-31T01:05:23.236Z,100264.00
2023-01-31T01:09:31.332Z,100269.19
2023-01-31T01:13:37.085Z,100271.41
2023-01-31T01:17:41.299Z,100283.50
2023-01-31T01:21:54.977Z,100283.13
2023-01-31T01:26:04.137Z,100289.22
2023-01-31T01:30:12.473Z,100284.84
2023-01-31T01:34:18.341Z,100279.28
2023-01-31T01:38:23.584Z,100288.84
2023-01-31T01:42:29.892Z,100292.56
2023-01-31T01:46:36.574Z,100287.81
2023-01-31T01:50:43.339Z,100288.75
2023-01-31T01:55:12.984Z,100294.03
2023-01-31T01:59:24.472Z,100284.56
2023-01-31T02:03:28.375Z,100258.63
2023-01-31T02:07:31.987Z,100268.91
2023-01-31T02:11:39.012Z,100283.06
2023-01-31T02:15:45.992Z,100288.03
2023-01-31T02:20:01.702Z,100254.13
2023-01-31T02:24:40.016Z,100278.63
2023-01-31T02:29:19.109Z,100288.38
2023-01-31T02:33:30.393Z,100298.31
2023-01-31T02:37:39.916Z,100272.38
2023-01-31T02:41:49.291Z,100294.47
2023-01-31T02:45:58.397Z,100289.41
2023-01-31T02:50:14.637Z,100292.44
2023-01-31T02:54:23.672Z,100289.44
2023-01-31T02:58:29.694Z,100292.19
2023-01-31T03:02:34.240Z,100289.28
2023-01-31T03:07:00.699Z,100298.91
2023-01-31T03:11:10.078Z,100293.06
2023-01-31T03:15:50.960Z,100300.50
2023-01-31T03:20:04.954Z,100304.59
2023-01-31T03:24:11.175Z,100297.59
2023-01-31T03:28:19.903Z,100304.41
2023-01-31T03:32:33.021Z,100297.00
2023-01-31T03:36:40.392Z,100290.16
2023-01-31T03:40:49.850Z,100288.97
2023-01-31T03:44:58.363Z,100293.72
2023-01-31T03:49:04.580Z,100305.69
2023-01-31T03:53:10.525Z,100307.34
2023-01-31T03:57:18.839Z,100314.72
2023-01-31T04:01:26.203Z,100317.97
2023-01-31T04:05:32.815Z,100307.41
2023-01-31T04:09:39.988Z,100317.88
2023-01-31T04:13:44.951Z,100306.59
2023-01-31T04:17:51.109Z,100308.63
2023-01-31T04:21:54.890Z,100296.28
2023-01-31T04:25:58.475Z,100296.72
2023-01-31T04:30:04.452Z,100300.28
2023-01-31T04:34:08.173Z,100293.63
2023-01-31T04:38:11.656Z,100305.34
2023-01-31T04:42:14.863Z,100285.75
2023-01-31T04:46:19.924Z,100296.53
2023-01-31T04:50:23.425Z,100290.91
2023-01-31T04:54:27.955Z,100300.28
2023-01-31T04:58:32.075Z,100303.84
2023-01-31T05:02:39.830Z,100320.13
2023-01-31T05:06:43.634Z,100303.19
2023-01-31T05:10:47.172Z,100323.38
2023-01-31T05:14:51.466Z,100322.06
2023-01-31T05:18:57.012Z,100321.44
2023-01-31T05:23:00.653Z,100330.88
2023-01-31T05:27:04.875Z,100320.47
2023-01-31T05:31:09.483Z,100326.03
2023-01-31T05:35:15.050Z,100317.41
2023-01-31T05:39:18.486Z,100321.50
2023-01-31T05:43:21.804Z,100323.88
2023-01-31T05:47:25.376Z,100324.41
2023-01-31T05:51:31.024Z,100313.16
2023-01-31T05:55:34.586Z,100306.25
2023-01-31T05:59:38.358Z,100306.03
2023-01-31T06:03:42.042Z,100303.84
2023-01-31T06:07:46.785Z,100311.44
2023-01-31T06:11:50.356Z,100312.25
2023-01-31T06:15:54.309Z,100316.34
2023-01-31T06:19:57.859Z,100328.03
2023-01-31T06:24:09.340Z,100314.06
2023-01-31T06:28:13.012Z,100318.78
2023-01-31T06:32:16.340Z,100317.09
2023-01-31T06:36:19.752Z,100315.81
2023-01-31T06:40:24.184Z,100304.31
2023-01-31T06:44:27.605Z,100316.66
2023-01-31T06:48:30.515Z,100310.97
2023-01-31T06:52:39.697Z,100312.44
2023-01-31T06:56:43.926Z,100313.28
2023-01-31T07:00:46.817Z,100313.94
2023-01-31T07:04:49.676Z,100322.03
2023-01-31T07:08:53.100Z,100321.13
2023-01-31T07:13:02.155Z,100320.91
2023-01-31T07:17:05.107Z,100316.66
2023-01-31T07:21:08.158Z,100311.31
2023-01-31T07:25:11.068Z,100303.84
2023-01-31T07:29:15.506Z,100305.47
2023-01-31T07:33:18.241Z,100310.84
2023-01-31T07:37:21.017Z,100311.38
2023-01-31T07:41:24.344Z,100302.56
2023-01-31T07:45:28.704Z,100305.94
2023-01-31T07:49:32.013Z,100298.28
2023-01-31T07:53:36.661Z,100339.53
2023-01-31T07:57:39.523Z,100327.28
2023-01-31T08:02:01.191Z,100342.78
2023-01-31T08:06:05.787Z,100342.31
2023-01-31T08:10:11.243Z,100338.25
2023-01-31T08:14:14.278Z,100345.75
2023-01-31T08:18:18.710Z,100322.22
2023-01-31T08:22:21.999Z,100352.28
2023-01-31T08:26:24.826Z,100357.66
2023-01-31T08:30:27.973Z,100350.19
2023-01-31T08:34:32.796Z,100344.38
2023-01-31T08:38:35.657Z,100353.03
2023-01-31T08:42:38.403Z,100347.63
2023-01-31T08:46:41.243Z,100354.00
2023-01-31T08:50:46.218Z,100354.16
2023-01-31T08:54:49.327Z,100348.66
2023-01-31T08:58:52.142Z,100342.63
2023-01-31T09:02:55.633Z,100328.47
2023-01-31T09:06:59.842Z,100339.72
2023-01-31T09:11:02.761Z,100337.28
2023-01-31T09:15:06.324Z,100304.56
2023-01-31T09:19:09.229Z,100317.28
2023-01-31T09:23:13.765Z,100327.22
2023-01-31T09:27:17.540Z,100325.63
2023-01-31T09:31:21.838Z,100345.69
2023-01-31T09:35:24.607Z,100346.97
2023-01-31T09:39:28.738Z,100341.97
2023-01-31T09:43:36.127Z,100346.03
2023-01-31T09:47:40.572Z,100346.19
2023-01-31T09:51:43.215Z,100336.56
2023-01-31T09:55:51.313Z,100338.53
2023-01-31T10:00:01.538Z,100344.88
2023-01-31T10:04:18.398Z,100313.44
2023-01-31T10:08:33.167Z,100328.72
2023-01-31T10:12:42.174Z,100333.59
2023-01-31T10:16:47.966Z,100337.00
2023-01-31T10:20:53.162Z,100329.50
2023-01-31T10:24:59.799Z,100312.34
2023-01-31T10:29:06.760Z,100294.44
2023-01-31T10:33:19.063Z,100307.63
2023-01-31T10:37:31.709Z,100299.59
2023-01-31T10:41:45.579Z,100288.50
2023-01-31T10:45:49.906Z,100291.72
2023-01-31T10:49:52.906Z,100263.97
2023-01-31T10:54:08.197Z,100272.44
2023-01-31T10:58:14.920Z,100271.69
2023-01-31T11:02:22.140Z,100252.13
2023-01-31T11:06:25.699Z,100270.38
2023-01-31T11:10:30.569Z,100259.22
2023-01-31T11:14:33.428Z,100246.47
2023-01-31T11:18:43.251Z,100222.31
2023-01-31T11:22:47.148Z,100215.19
2023-01-31T11:26:55.687Z,100183.72
2023-01-31T11:30:59.230Z,100211.63
2023-01-31T11:35:07.479Z,100204.50
2023-01-31T11:39:28.599Z,100211.28
2023-01-31T11:43:32.091Z,100208.94
2023-01-31T11:47:41.809Z,100190.06
2023-01-31T11:51:45.994Z,100184.38
2023-01-31T11:55:50.539Z,100181.91
2023-01-31T11:59:56.857Z,100171.28
2023-01-31T12:04:04.115Z,100163.97
2023-01-31T12:08:30.295Z,100141.78
2023-01-31T12:12:36.081Z,100118.28
2023-01-31T12:16:38.987Z,100117.72
2023-01-31T12:20:47.892Z,100103.66
2023-01-31T12:25:05.726Z,100098.88
2023-01-31T12:29:19.497Z,100096.59
2023-01-31T12:33:34.316Z,100099.97
2023-01-31T12:37:44.525Z,100063.97
2023-01-31T12:42:01.923Z,100095.88
2023-01-31T12:46:11.865Z,100084.22
2023-01-31T12:50:24.752Z,100091.31
2023-01-31T12:54:40.233Z,100087.53
2023-01-31T12:58:53.605Z,100083.25
2023-01-31T13:03:17.955Z,100086.97
2023-01-31T13:07:27.043Z,100092.47
2023-01-31T13:11:34.853Z,100076.22
2023-01-31T13:15:45.089Z,100079.28
2023-01-31T13:19:52.599Z,100067.19
2023-01-31T13:23:59.808Z,100041.19
2023-01-31T13:28:07.133Z,100029.97
2023-01-31T13:32:15.878Z,100029.34
2023-01-31T13:36:25.834Z,100030.03
2023-01-31T13:40:32.345Z,100020.25
2023-01-31T13:44:41.410Z,100023.38
2023-01-31T13:48:53.607Z,100019.31
2023-01-31T13:52:59.068Z,100025.38
2023-01-31T13:57:03.461Z,99987.75
2023-01-31T14:01:08.709Z,100014.13
2023-01-31T14:05:54.000Z,100030.44
2023-01-31T14:10:36.481Z,100027.66
2023-01-31T14:14:52.367Z,100006.59
2023-01-31T14:19:00.592Z,100023.16
2023-01-31T14:23:41.241Z,100024.75
2023-01-31T14:28:04.298Z,100036.25
2023-01-31T14:32:15.635Z,100031.53
2023-01-31T14:36:38.049Z,100036.00
2023-01-31T14:40:48.574Z,100032.78
2023-01-31T14:44:54.877Z,100042.63
2023-01-31T14:49:31.505Z,100058.91
2023-01-31T14:53:49.688Z,100079.00
2023-01-31T14:57:58.465Z,100077.03
2023-01-31T15:02:02.482Z,100085.69
2023-01-31T15:06:12.126Z,100086.38
2023-01-31T15:10:48.653Z,100085.41
2023-01-31T15:14:54.070Z,100087.75
2023-01-31T15:19:06.075Z,100090.56
2023-01-31T15:23:16.142Z,100090.38
2023-01-31T15:27:20.892Z,100064.88
2023-01-31T15:31:29.991Z,100060.50
2023-01-31T15:35:34.443Z,100076.22
2023-01-31T15:39:42.256Z,100080.91
2023-01-31T15:43:45.439Z,100081.47
2023-01-31T15:48:00.407Z,100075.22
2023-01-31T15:52:10.619Z,100078.03
2023-01-31T15:56:19.028Z,100068.53
2023-01-31T16:00:25.148Z,100068.31
2023-01-31T16:04:30.185Z,100084.63
2023-01-31T16:08:34.965Z,100080.63
2023-01-31T16:12:42.697Z,100080.84
2023-01-31T16:16:46.855Z,100083.63
2023-01-31T16:20:51.621Z,100082.63
2023-01-31T16:24:55.708Z,100074.78
2023-01-31T16:29:02.440Z,100085.88
2023-01-31T16:33:05.255Z,100087.69
2023-01-31T16:37:12.745Z,100084.44
2023-01-31T16:41:48.410Z,100088.31
2023-01-31T16:45:52.410Z,100088.94
2023-01-31T16:50:42.893Z,100083.09
2023-01-31T16:54:51.927Z,100064.88
2023-01-31T16:58:56.455Z,100084.50
2023-01-31T17:03:00.754Z,100092.38
2023-01-31T17:07:04.043Z,100083.50
2023-01-31T17:11:16.533Z,100076.03
2023-01-31T17:15:23.641Z,100073.41
2023-01-31T17:19:27.378Z,100061.88
2023-01-31T17:23:30.527Z,100079.09
2023-01-31T17:27:35.487Z,100050.22
2023-01-31T17:31:39.545Z,100070.16
2023-01-31T17:35:44.561Z,100069.16
2023-01-31T17:39:47.933Z,100080.91
2023-01-31T17:43:52.852Z,100079.72
2023-01-31T17:47:56.218Z,100066.63
2023-01-31T17:52:04.447Z,100062.81
2023-01-31T17:56:08.513Z,100065.00
2023-01-31T18:00:17.417Z,100070.69
2023-01-31T18:04:20.700Z,100080.16
2023-01-31T18:08:25.025Z,100083.22
2023-01-31T18:12:30.223Z,100082.59
2023-01-31T18:16:39.205Z,100076.13
2023-01-31T18:20:54.698Z,100062.94
2023-01-31T18:24:57.877Z,100087.28
2023-01-31T18:29:20.026Z,100091.09
2023-01-31T18:33:24.682Z,100081.03
2023-01-31T18:37:27.715Z,100062.41
2023-01-31T18:41:38.848Z,100081.84
2023-01-31T18:45:42.280Z,100081.97
2023-01-31T18:50:10.665Z,100080.03
2023-01-31T18:54:13.914Z,100090.25
2023-01-31T18:58:17.929Z,100080.78
2023-01-31T19:02:21.357Z,100078.00
2023-01-31T19:06:28.792Z,100083.41
2023-01-31T19:10:31.638Z,100080.00
2023-01-31T19:14:34.457Z,100086.44
2023-01-31T19:18:38.015Z,100089.63
2023-01-31T19:22:42.851Z,100086.03
2023-01-31T19:26:45.993Z,100079.00
2023-01-31T19:30:52.525Z,100070.13
2023-01-31T19:34:55.733Z,100073.97
2023-01-31T19:39:02.183Z,100061.25
2023-01-31T19:43:06.474Z,100067.56
2023-01-31T19:47:19.630Z,100068.75
2023-01-31T19:51:25.477Z,100062.72
2023-01-31T19:55:30.279Z,100053.66
2023-01-31T19:59:33.681Z,100049.25
2023-01-31T20:03:36.794Z,100068.19
2023-01-31T20:07:42.729Z,100068.38
2023-01-31T20:11:47.772Z,100063.75
2023-01-31T20:15:58.206Z,100035.59
2023-01-31T20:20:01.784Z,100066.84
2023-01-31T20:24:05.749Z,100053.53
2023-01-31T20:28:16.557Z,100050.28
2023-01-31T20:32:20.026Z,100042.19
2023-01-31T20:36:24.417Z,100054.53
2023-01-31T20:40:41.800Z,100039.44
2023-01-31T20:44:55.406Z,100054.41
2023-01-31T20:49:01.092Z,100047.03
2023-01-31T20:53:04.516Z,100045.69
2023-01-31T20:57:10.003Z,100050.75
2023-01-31T21:01:15.596Z,100034.31
2023-01-31T21:05:19.427Z,100053.16
2023-01-31T21:09:23.304Z,100051.53
2023-01-31T21:13:30.284Z,100063.25
2023-01-31T21:17:40.339Z,100063.06
2023-01-31T21:21:44.552Z,100064.69
2023-01-31T21:25:47.815Z,100057.66
2023-01-31T21:29:53.254Z,100053.41
2023-01-31T21:33:58.371Z,100053.00
2023-01-31T21:38:01.994Z,100037.91
2023-01-31T21:42:16.326Z,100042.31
2023-01-31T21:46:20.120Z,100052.84
2023-01-31T21:50:25.386Z,100046.22
2023-01-31T21:54:30.755Z,100034.66
2023-01-31T21:58:37.585Z,100041.72
2023-01-31T22:02:42.313Z,100034.94
2023-01-31T22:06:47.244Z,100034.56
2023-01-31T22:10:50.683Z,100024.72
2023-01-31T22:14:54.204Z,100025.34
2023-01-31T22:18:57.489Z,100004.06
2023-01-31T22:23:02.211Z,100012.22
2023-01-31T22:27:05.602Z,99993.66
2023-01-31T22:31:10.423Z,100001.94
2023-01-31T22:35:13.812Z,99984.34
2023-01-31T22:39:18.587Z,99994.88
2023-01-31T22:43:22.926Z,99990.66
2023-01-31T22:47:26.726Z,99977.16
2023-01-31T22:51:30.821Z,99961.81
2023-01-31T22:55:38.960Z,99963.47
2023-01-31T22:59:42.247Z,99961.47
2023-01-31T23:03:46.358Z,99961.09
2023-01-31T23:07:50.008Z,99964.09
2023-01-31T23:11:54.804Z,99959.47
2023-01-31T23:15:58.470Z,99953.59
2023-01-31T23:20:01.939Z,99965.91
2023-01-31T23:24:05.993Z,99957.41
2023-01-31T23:28:10.641Z,99955.41
2023-01-31T23:32:15.939Z,99940.88
2023-01-31T23:36:19.351Z,99935.88
2023-01-31T23:40:22.836Z,99929.03
2023-01-31T23:44:27.666Z,99933.66
2023-01-31T23:48:30.917Z,99925.97
2023-01-31T23:52:34.407Z,99927.22
2023-01-31T23:56:37.668Z,99940.69
